sensor_id;sensor_type;location;lat;lon;timestamp;P1;durP1;ratioP1;P2;durP2;ratioP2
44434;SDS011;30138;20.964;105.830;2022-12-19T00:02:40;219.05;;;103.07;;
44434;SDS011;30138;20.964;105.830;2022-12-19T00:07:47;228.63;;;103.60;;
44434;SDS011;30138;20.964;105.830;2022-12-19T00:12:56;230.73;;;104.20;;
44434;SDS011;30138;20.964;105.830;2022-12-19T00:18:05;228.30;;;104.97;;
44434;SDS011;30138;20.964;105.830;2022-12-19T00:23:12;231.35;;;103.32;;
44434;SDS011;30138;20.964;105.830;2022-12-19T00:28:20;237.00;;;108.90;;
44434;SDS011;30138;20.964;105.830;2022-12-19T00:33:29;217.32;;;107.72;;
44434;SDS011;30138;20.964;105.830;2022-12-19T00:38:38;221.70;;;104.90;;
44434;SDS011;30138;20.964;105.830;2022-12-19T00:43:45;226.48;;;106.03;;
44434;SDS011;30138;20.964;105.830;2022-12-19T00:49:00;224.27;;;107.90;;
44434;SDS011;30138;20.964;105.830;2022-12-19T00:54:09;226.23;;;108.40;;
44434;SDS011;30138;20.964;105.830;2022-12-19T00:59:17;216.68;;;105.07;;
44434;SDS011;30138;20.964;105.830;2022-12-19T01:04:26;218.95;;;104.20;;
44434;SDS011;30138;20.964;105.830;2022-12-19T01:09:34;191.90;;;96.40;;
44434;SDS011;30138;20.964;105.830;2022-12-19T01:14:44;198.35;;;95.28;;
44434;SDS011;30138;20.964;105.830;2022-12-19T01:19:53;179.50;;;90.70;;
44434;SDS011;30138;20.964;105.830;2022-12-19T01:25:00;181.57;;;87.10;;
44434;SDS011;30138;20.964;105.830;2022-12-19T01:30:09;173.50;;;82.13;;
44434;SDS011;30138;20.964;105.830;2022-12-19T01:35:23;161.02;;;78.88;;
44434;SDS011;30138;20.964;105.830;2022-12-19T01:40:31;160.20;;;74.43;;
44434;SDS011;30138;20.964;105.830;2022-12-19T01:45:39;141.50;;;68.10;;
44434;SDS011;30138;20.964;105.830;2022-12-19T01:50:51;146.50;;;68.82;;
44434;SDS011;30138;20.964;105.830;2022-12-19T01:56:01;146.93;;;66.95;;
44434;SDS011;30138;20.964;105.830;2022-12-19T02:01:10;136.15;;;67.03;;
44434;SDS011;30138;20.964;105.830;2022-12-19T02:06:20;134.23;;;64.50;;
44434;SDS011;30138;20.964;105.830;2022-12-19T02:11:29;123.13;;;62.90;;
44434;SDS011;30138;20.964;105.830;2022-12-19T02:16:39;127.60;;;63.78;;
44434;SDS011;30138;20.964;105.830;2022-12-19T02:21:56;115.80;;;58.95;;
44434;SDS011;30138;20.964;105.830;2022-12-19T02:27:16;105.97;;;57.35;;
44434;SDS011;30138;20.964;105.830;2022-12-19T02:32:47;108.13;;;54.78;;
44434;SDS011;30138;20.964;105.830;2022-12-19T02:38:11;118.95;;;57.22;;
44434;SDS011;30138;20.964;105.830;2022-12-19T02:43:24;107.22;;;55.40;;
44434;SDS011;30138;20.964;105.830;2022-12-19T02:48:40;104.63;;;54.35;;
44434;SDS011;30138;20.964;105.830;2022-12-19T02:53:49;116.63;;;56.73;;
44434;SDS011;30138;20.964;105.830;2022-12-19T02:59:00;119.50;;;57.10;;
44434;SDS011;30138;20.964;105.830;2022-12-19T03:04:29;106.20;;;55.75;;
44434;SDS011;30138;20.964;105.830;2022-12-19T03:09:47;103.78;;;55.60;;
44434;SDS011;30138;20.964;105.830;2022-12-19T03:15:06;115.88;;;53.97;;
44434;SDS011;30138;20.964;105.830;2022-12-19T03:20:17;112.65;;;54.55;;
44434;SDS011;30138;20.964;105.830;2022-12-19T03:25:30;107.00;;;55.67;;
44434;SDS011;30138;20.964;105.830;2022-12-19T03:30:38;103.50;;;54.67;;
44434;SDS011;30138;20.964;105.830;2022-12-19T03:35:50;100.07;;;52.33;;
44434;SDS011;30138;20.964;105.830;2022-12-19T03:46:08;105.03;;;52.13;;
44434;SDS011;30138;20.964;105.830;2022-12-19T03:51:26;99.70;;;53.30;;
44434;SDS011;30138;20.964;105.830;2022-12-19T03:56:44;95.65;;;50.85;;
44434;SDS011;30138;20.964;105.830;2022-12-19T04:01:55;100.03;;;50.10;;
44434;SDS011;30138;20.964;105.830;2022-12-19T04:07:05;97.63;;;51.13;;
44434;SDS011;30138;20.964;105.830;2022-12-19T04:12:14;94.30;;;47.92;;
44434;SDS011;30138;20.964;105.830;2022-12-19T04:17:26;98.13;;;50.78;;
44434;SDS011;30138;20.964;105.830;2022-12-19T04:22:46;96.90;;;49.65;;
44434;SDS011;30138;20.964;105.830;2022-12-19T04:27:59;93.45;;;48.80;;
44434;SDS011;30138;20.964;105.830;2022-12-19T04:33:14;86.78;;;48.92;;
44434;SDS011;30138;20.964;105.830;2022-12-19T04:38:24;93.47;;;47.00;;
44434;SDS011;30138;20.964;105.830;2022-12-19T04:43:32;84.13;;;47.58;;
44434;SDS011;30138;20.964;105.830;2022-12-19T04:48:40;85.38;;;46.65;;
44434;SDS011;30138;20.964;105.830;2022-12-19T04:53:49;94.50;;;49.60;;
44434;SDS011;30138;20.964;105.830;2022-12-19T04:58:58;90.72;;;48.03;;
44434;SDS011;30138;20.964;105.830;2022-12-19T05:04:06;94.70;;;47.92;;
44434;SDS011;30138;20.964;105.830;2022-12-19T05:09:15;92.72;;;48.92;;
44434;SDS011;30138;20.964;105.830;2022-12-19T05:14:23;90.07;;;48.15;;
44434;SDS011;30138;20.964;105.830;2022-12-19T05:19:30;92.97;;;49.10;;
44434;SDS011;30138;20.964;105.830;2022-12-19T05:24:40;99.30;;;50.63;;
44434;SDS011;30138;20.964;105.830;2022-12-19T05:29:47;102.93;;;53.60;;
44434;SDS011;30138;20.964;105.830;2022-12-19T05:34:55;108.97;;;54.40;;
44434;SDS011;30138;20.964;105.830;2022-12-19T05:40:04;96.80;;;50.72;;
44434;SDS011;30138;20.964;105.830;2022-12-19T05:45:13;97.97;;;52.83;;
44434;SDS011;30138;20.964;105.830;2022-12-19T05:50:21;101.55;;;52.60;;
44434;SDS011;30138;20.964;105.830;2022-12-19T05:55:30;101.97;;;54.42;;
44434;SDS011;30138;20.964;105.830;2022-12-19T06:00:37;99.13;;;53.15;;
44434;SDS011;30138;20.964;105.830;2022-12-19T06:05:45;96.90;;;52.17;;
44434;SDS011;30138;20.964;105.830;2022-12-19T06:10:55;101.07;;;53.17;;
44434;SDS011;30138;20.964;105.830;2022-12-19T06:16:05;103.43;;;54.90;;
44434;SDS011;30138;20.964;105.830;2022-12-19T06:21:16;103.85;;;53.25;;
44434;SDS011;30138;20.964;105.830;2022-12-19T06:26:28;107.22;;;54.15;;
44434;SDS011;30138;20.964;105.830;2022-12-19T06:31:36;109.40;;;54.25;;
44434;SDS011;30138;20.964;105.830;2022-12-19T06:36:44;100.32;;;52.53;;
44434;SDS011;30138;20.964;105.830;2022-12-19T06:41:53;94.20;;;50.90;;
44434;SDS011;30138;20.964;105.830;2022-12-19T06:47:17;94.90;;;52.10;;
44434;SDS011;30138;20.964;105.830;2022-12-19T06:52:25;100.05;;;51.67;;
44434;SDS011;30138;20.964;105.830;2022-12-19T06:57:35;93.00;;;51.70;;
44434;SDS011;30138;20.964;105.830;2022-12-19T07:02:47;91.65;;;49.13;;
44434;SDS011;30138;20.964;105.830;2022-12-19T07:07:56;92.45;;;49.17;;
44434;SDS011;30138;20.964;105.830;2022-12-19T07:13:05;95.80;;;48.58;;
44434;SDS011;30138;20.964;105.830;2022-12-19T07:18:13;87.45;;;47.72;;
44434;SDS011;30138;20.964;105.830;2022-12-19T07:23:21;88.60;;;49.10;;
44434;SDS011;30138;20.964;105.830;2022-12-19T07:28:32;92.25;;;48.22;;
44434;SDS011;30138;20.964;105.830;2022-12-19T07:33:41;85.38;;;47.92;;
44434;SDS011;30138;20.964;105.830;2022-12-19T07:38:49;92.75;;;47.80;;
44434;SDS011;30138;20.964;105.830;2022-12-19T07:43:59;89.18;;;47.42;;
44434;SDS011;30138;20.964;105.830;2022-12-19T07:49:07;94.82;;;47.42;;
44434;SDS011;30138;20.964;105.830;2022-12-19T07:54:15;83.45;;;45.55;;
44434;SDS011;30138;20.964;105.830;2022-12-19T07:59:25;89.03;;;47.47;;
44434;SDS011;30138;20.964;105.830;2022-12-19T08:04:34;85.82;;;44.58;;
44434;SDS011;30138;20.964;105.830;2022-12-19T08:09:42;86.82;;;47.28;;
44434;SDS011;30138;20.964;105.830;2022-12-19T08:14:54;81.85;;;46.20;;
44434;SDS011;30138;20.964;105.830;2022-12-19T08:20:02;84.13;;;45.63;;
44434;SDS011;30138;20.964;105.830;2022-12-19T08:25:12;88.28;;;46.53;;
44434;SDS011;30138;20.964;105.830;2022-12-19T08:30:24;93.03;;;47.95;;
44434;SDS011;30138;20.964;105.830;2022-12-19T08:35:31;83.90;;;46.53;;
44434;SDS011;30138;20.964;105.830;2022-12-19T08:40:40;85.50;;;47.53;;
44434;SDS011;30138;20.964;105.830;2022-12-19T08:45:49;90.30;;;48.95;;
44434;SDS011;30138;20.964;105.830;2022-12-19T08:50:57;101.55;;;50.78;;
44434;SDS011;30138;20.964;105.830;2022-12-19T08:56:06;98.63;;;51.05;;
44434;SDS011;30138;20.964;105.830;2022-12-19T09:01:19;90.50;;;50.33;;
44434;SDS011;30138;20.964;105.830;2022-12-19T09:06:28;99.20;;;51.05;;
44434;SDS011;30138;20.964;105.830;2022-12-19T09:11:37;85.80;;;48.60;;
44434;SDS011;30138;20.964;105.830;2022-12-19T09:16:47;83.88;;;48.40;;
44434;SDS011;30138;20.964;105.830;2022-12-19T09:21:55;86.30;;;49.15;;
44434;SDS011;30138;20.964;105.830;2022-12-19T09:27:04;92.72;;;49.78;;
44434;SDS011;30138;20.964;105.830;2022-12-19T09:32:13;91.43;;;49.60;;
44434;SDS011;30138;20.964;105.830;2022-12-19T09:37:22;89.38;;;48.85;;
44434;SDS011;30138;20.964;105.830;2022-12-19T09:42:34;87.65;;;50.00;;
44434;SDS011;30138;20.964;105.830;2022-12-19T09:47:56;87.10;;;49.53;;
44434;SDS011;30138;20.964;105.830;2022-12-19T09:53:06;99.07;;;52.47;;
44434;SDS011;30138;20.964;105.830;2022-12-19T09:58:24;103.18;;;55.13;;
44434;SDS011;30138;20.964;105.830;2022-12-19T10:03:43;115.43;;;55.88;;
44434;SDS011;30138;20.964;105.830;2022-12-19T10:08:58;98.25;;;56.30;;
44434;SDS011;30138;20.964;105.830;2022-12-19T10:14:15;109.82;;;58.45;;
44434;SDS011;30138;20.964;105.830;2022-12-19T10:19:39;111.13;;;60.65;;
44434;SDS011;30138;20.964;105.830;2022-12-19T10:25:02;119.00;;;65.63;;
44434;SDS011;30138;20.964;105.830;2022-12-19T10:30:28;128.07;;;67.55;;
44434;SDS011;30138;20.964;105.830;2022-12-19T10:35:42;129.32;;;68.05;;
44434;SDS011;30138;20.964;105.830;2022-12-19T10:40:55;137.52;;;69.65;;
44434;SDS011;30138;20.964;105.830;2022-12-19T10:46:20;147.50;;;76.18;;
44434;SDS011;30138;20.964;105.830;2022-12-19T10:51:41;132.00;;;72.07;;
44434;SDS011;30138;20.964;105.830;2022-12-19T10:57:15;148.43;;;76.43;;
44434;SDS011;30138;20.964;105.830;2022-12-19T11:02:31;148.85;;;79.22;;
44434;SDS011;30138;20.964;105.830;2022-12-19T11:07:55;160.70;;;81.85;;
44434;SDS011;30138;20.964;105.830;2022-12-19T11:13:16;158.25;;;84.90;;
44434;SDS011;30138;20.964;105.830;2022-12-19T11:18:33;165.50;;;89.15;;
44434;SDS011;30138;20.964;105.830;2022-12-19T11:23:50;165.15;;;89.35;;
44434;SDS011;30138;20.964;105.830;2022-12-19T11:29:00;176.27;;;94.65;;
44434;SDS011;30138;20.964;105.830;2022-12-19T11:39:34;186.77;;;100.97;;
44434;SDS011;30138;20.964;105.830;2022-12-19T11:44:47;197.88;;;100.22;;
44434;SDS011;30138;20.964;105.830;2022-12-19T11:50:03;209.80;;;107.55;;
44434;SDS011;30138;20.964;105.830;2022-12-19T11:55:21;214.80;;;109.57;;
44434;SDS011;30138;20.964;105.830;2022-12-19T12:00:31;212.90;;;114.07;;
44434;SDS011;30138;20.964;105.830;2022-12-19T12:05:42;234.93;;;121.15;;
44434;SDS011;30138;20.964;105.830;2022-12-19T12:10:53;259.33;;;125.87;;
44434;SDS011;30138;20.964;105.830;2022-12-19T12:16:07;223.93;;;119.50;;
44434;SDS011;30138;20.964;105.830;2022-12-19T12:21:20;236.80;;;119.70;;
44434;SDS011;30138;20.964;105.830;2022-12-19T12:26:32;241.68;;;122.10;;
44434;SDS011;30138;20.964;105.830;2022-12-19T12:31:45;266.73;;;126.88;;
44434;SDS011;30138;20.964;105.830;2022-12-19T12:37:12;262.38;;;130.23;;
44434;SDS011;30138;20.964;105.830;2022-12-19T12:42:40;272.60;;;135.00;;
44434;SDS011;30138;20.964;105.830;2022-12-19T12:47:58;280.13;;;137.90;;
44434;SDS011;30138;20.964;105.830;2022-12-19T12:53:06;291.88;;;145.07;;
44434;SDS011;30138;20.964;105.830;2022-12-19T13:04:27;279.48;;;139.82;;
44434;SDS011;30138;20.964;105.830;2022-12-19T13:09:38;278.30;;;140.63;;
44434;SDS011;30138;20.964;105.830;2022-12-19T13:14:50;285.27;;;146.40;;
44434;SDS011;30138;20.964;105.830;2022-12-19T13:25:48;264.60;;;130.48;;
44434;SDS011;30138;20.964;105.830;2022-12-19T13:36:45;237.73;;;112.97;;
44434;SDS011;30138;20.964;105.830;2022-12-19T13:42:00;210.60;;;107.88;;
44434;SDS011;30138;20.964;105.830;2022-12-19T13:47:34;206.95;;;101.10;;
44434;SDS011;30138;20.964;105.830;2022-12-19T13:52:47;202.93;;;98.70;;
44434;SDS011;30138;20.964;105.830;2022-12-19T13:57:55;193.63;;;95.50;;
44434;SDS011;30138;20.964;105.830;2022-12-19T14:03:11;192.82;;;90.85;;
44434;SDS011;30138;20.964;105.830;2022-12-19T14:08:24;182.40;;;89.53;;
44434;SDS011;30138;20.964;105.830;2022-12-19T14:13:34;162.30;;;85.53;;
44434;SDS011;30138;20.964;105.830;2022-12-19T14:24:27;153.40;;;80.55;;
44434;SDS011;30138;20.964;105.830;2022-12-19T14:29:35;172.10;;;83.13;;
44434;SDS011;30138;20.964;105.830;2022-12-19T14:34:52;171.40;;;84.07;;
44434;SDS011;30138;20.964;105.830;2022-12-19T14:40:13;178.10;;;89.57;;
44434;SDS011;30138;20.964;105.830;2022-12-19T14:45:32;186.40;;;91.63;;
44434;SDS011;30138;20.964;105.830;2022-12-19T14:50:45;178.10;;;90.45;;
44434;SDS011;30138;20.964;105.830;2022-12-19T14:56:00;198.85;;;94.72;;
44434;SDS011;30138;20.964;105.830;2022-12-19T15:01:18;187.57;;;95.68;;
44434;SDS011;30138;20.964;105.830;2022-12-19T15:06:30;190.07;;;99.38;;
44434;SDS011;30138;20.964;105.830;2022-12-19T15:11:42;199.35;;;97.57;;
44434;SDS011;30138;20.964;105.830;2022-12-19T15:17:13;194.48;;;97.35;;
44434;SDS011;30138;20.964;105.830;2022-12-19T15:22:27;182.38;;;92.50;;
44434;SDS011;30138;20.964;105.830;2022-12-19T15:27:35;180.25;;;87.43;;
44434;SDS011;30138;20.964;105.830;2022-12-19T15:32:43;157.13;;;82.07;;
44434;SDS011;30138;20.964;105.830;2022-12-19T15:37:53;163.43;;;82.20;;
44434;SDS011;30138;20.964;105.830;2022-12-19T15:43:01;155.90;;;82.72;;
44434;SDS011;30138;20.964;105.830;2022-12-19T15:48:10;156.32;;;84.80;;
44434;SDS011;30138;20.964;105.830;2022-12-19T15:53:24;156.90;;;82.78;;
44434;SDS011;30138;20.964;105.830;2022-12-19T15:58:33;157.25;;;83.15;;
44434;SDS011;30138;20.964;105.830;2022-12-19T16:04:51;163.18;;;81.00;;
44434;SDS011;30138;20.964;105.830;2022-12-19T16:09:26;152.52;;;81.38;;
44434;SDS011;30138;20.964;105.830;2022-12-19T16:14:33;155.50;;;81.53;;
44434;SDS011;30138;20.964;105.830;2022-12-19T16:19:42;158.45;;;79.35;;
44434;SDS011;30138;20.964;105.830;2022-12-19T16:24:52;162.68;;;81.65;;
44434;SDS011;30138;20.964;105.830;2022-12-19T16:30:09;157.38;;;80.57;;
44434;SDS011;30138;20.964;105.830;2022-12-19T16:35:25;148.82;;;77.68;;
44434;SDS011;30138;20.964;105.830;2022-12-19T16:40:52;140.95;;;74.35;;
44434;SDS011;30138;20.964;105.830;2022-12-19T16:46:02;145.82;;;72.68;;
44434;SDS011;30138;20.964;105.830;2022-12-19T16:51:16;141.73;;;70.82;;
44434;SDS011;30138;20.964;105.830;2022-12-19T16:56:27;138.95;;;67.80;;
44434;SDS011;30138;20.964;105.830;2022-12-19T17:01:39;121.90;;;64.05;;
44434;SDS011;30138;20.964;105.830;2022-12-19T17:06:47;127.82;;;60.47;;
44434;SDS011;30138;20.964;105.830;2022-12-19T17:11:58;119.72;;;59.85;;
44434;SDS011;30138;20.964;105.830;2022-12-19T17:17:08;127.40;;;58.70;;
44434;SDS011;30138;20.964;105.830;2022-12-19T17:22:18;117.40;;;58.63;;
44434;SDS011;30138;20.964;105.830;2022-12-19T17:27:28;123.38;;;59.28;;
44434;SDS011;30138;20.964;105.830;2022-12-19T17:32:36;119.07;;;56.92;;
44434;SDS011;30138;20.964;105.830;2022-12-19T17:37:43;114.03;;;56.03;;
44434;SDS011;30138;20.964;105.830;2022-12-19T17:42:58;125.18;;;54.33;;
44434;SDS011;30138;20.964;105.830;2022-12-19T17:48:06;120.57;;;57.45;;
44434;SDS011;30138;20.964;105.830;2022-12-19T17:53:26;136.00;;;57.97;;
44434;SDS011;30138;20.964;105.830;2022-12-19T17:58:37;123.25;;;56.53;;
44434;SDS011;30138;20.964;105.830;2022-12-19T18:03:45;121.27;;;58.07;;
44434;SDS011;30138;20.964;105.830;2022-12-19T18:08:55;119.35;;;57.28;;
44434;SDS011;30138;20.964;105.830;2022-12-19T18:14:06;118.70;;;57.38;;
44434;SDS011;30138;20.964;105.830;2022-12-19T18:19:14;131.30;;;58.75;;
44434;SDS011;30138;20.964;105.830;2022-12-19T18:24:25;125.90;;;59.70;;
44434;SDS011;30138;20.964;105.830;2022-12-19T18:29:35;119.88;;;60.05;;
44434;SDS011;30138;20.964;105.830;2022-12-19T18:34:43;117.45;;;58.40;;
44434;SDS011;30138;20.964;105.830;2022-12-19T18:39:50;125.07;;;59.92;;
44434;SDS011;30138;20.964;105.830;2022-12-19T18:45:00;120.97;;;59.40;;
44434;SDS011;30138;20.964;105.830;2022-12-19T18:50:12;118.88;;;56.97;;
44434;SDS011;30138;20.964;105.830;2022-12-19T18:55:22;116.50;;;56.92;;
44434;SDS011;30138;20.964;105.830;2022-12-19T19:00:35;112.03;;;55.23;;
44434;SDS011;30138;20.964;105.830;2022-12-19T19:05:44;109.60;;;56.47;;
44434;SDS011;30138;20.964;105.830;2022-12-19T19:10:52;111.40;;;55.20;;
44434;SDS011;30138;20.964;105.830;2022-12-19T19:16:05;106.20;;;53.05;;
44434;SDS011;30138;20.964;105.830;2022-12-19T19:21:20;106.07;;;51.80;;
44434;SDS011;30138;20.964;105.830;2022-12-19T19:26:29;114.05;;;53.47;;
44434;SDS011;30138;20.964;105.830;2022-12-19T19:31:39;105.25;;;53.20;;
44434;SDS011;30138;20.964;105.830;2022-12-19T19:36:50;109.50;;;54.28;;
44434;SDS011;30138;20.964;105.830;2022-12-19T19:42:00;108.40;;;55.67;;
44434;SDS011;30138;20.964;105.830;2022-12-19T19:47:11;117.32;;;57.35;;
44434;SDS011;30138;20.964;105.830;2022-12-19T19:52:18;122.68;;;59.72;;
44434;SDS011;30138;20.964;105.830;2022-12-19T19:57:26;129.80;;;60.50;;
44434;SDS011;30138;20.964;105.830;2022-12-19T20:02:35;122.63;;;63.80;;
44434;SDS011;30138;20.964;105.830;2022-12-19T20:07:43;130.55;;;65.05;;
44434;SDS011;30138;20.964;105.830;2022-12-19T20:12:50;140.05;;;64.95;;
44434;SDS011;30138;20.964;105.830;2022-12-19T20:18:01;133.73;;;65.47;;
44434;SDS011;30138;20.964;105.830;2022-12-19T20:23:08;128.35;;;66.75;;
44434;SDS011;30138;20.964;105.830;2022-12-19T20:28:16;142.05;;;71.43;;
44434;SDS011;30138;20.964;105.830;2022-12-19T20:33:25;150.10;;;76.97;;
44434;SDS011;30138;20.964;105.830;2022-12-19T20:38:33;169.63;;;80.82;;
44434;SDS011;30138;20.964;105.830;2022-12-19T20:43:41;177.63;;;82.90;;
44434;SDS011;30138;20.964;105.830;2022-12-19T20:48:51;182.77;;;84.63;;
44434;SDS011;30138;20.964;105.830;2022-12-19T20:54:01;182.98;;;86.88;;
44434;SDS011;30138;20.964;105.830;2022-12-19T20:59:09;189.00;;;86.32;;
44434;SDS011;30138;20.964;105.830;2022-12-19T21:04:19;181.45;;;89.18;;
44434;SDS011;30138;20.964;105.830;2022-12-19T21:09:27;182.10;;;85.90;;
44434;SDS011;30138;20.964;105.830;2022-12-19T21:14:36;186.80;;;88.25;;
44434;SDS011;30138;20.964;105.830;2022-12-19T21:19:47;184.57;;;88.60;;
44434;SDS011;30138;20.964;105.830;2022-12-19T21:24:54;190.40;;;86.63;;
44434;SDS011;30138;20.964;105.830;2022-12-19T21:30:01;170.80;;;88.93;;
44434;SDS011;30138;20.964;105.830;2022-12-19T21:35:13;183.27;;;89.13;;
44434;SDS011;30138;20.964;105.830;2022-12-19T21:40:22;175.07;;;84.90;;
44434;SDS011;30138;20.964;105.830;2022-12-19T21:45:29;178.43;;;86.35;;
44434;SDS011;30138;20.964;105.830;2022-12-19T21:50:39;165.30;;;83.25;;
44434;SDS011;30138;20.964;105.830;2022-12-19T21:55:46;175.15;;;85.82;;
44434;SDS011;30138;20.964;105.830;2022-12-19T22:01:02;174.93;;;86.35;;
44434;SDS011;30138;20.964;105.830;2022-12-19T22:06:14;170.63;;;83.43;;
44434;SDS011;30138;20.964;105.830;2022-12-19T22:11:23;176.95;;;83.65;;
44434;SDS011;30138;20.964;105.830;2022-12-19T22:16:32;189.02;;;84.60;;
44434;SDS011;30138;20.964;105.830;2022-12-19T22:21:43;164.57;;;83.35;;
44434;SDS011;30138;20.964;105.830;2022-12-19T22:26:52;165.73;;;83.28;;
44434;SDS011;30138;20.964;105.830;2022-12-19T22:32:00;177.60;;;84.05;;
44434;SDS011;30138;20.964;105.830;2022-12-19T22:37:09;168.15;;;82.07;;
44434;SDS011;30138;20.964;105.830;2022-12-19T22:42:16;178.00;;;85.32;;
44434;SDS011;30138;20.964;105.830;2022-12-19T22:47:24;168.25;;;87.82;;
44434;SDS011;30138;20.964;105.830;2022-12-19T22:52:33;179.63;;;87.32;;
44434;SDS011;30138;20.964;105.830;2022-12-19T22:57:41;180.77;;;89.57;;
44434;SDS011;30138;20.964;105.830;2022-12-19T23:02:48;181.43;;;89.25;;
44434;SDS011;30138;20.964;105.830;2022-12-19T23:07:57;182.00;;;90.20;;
44434;SDS011;30138;20.964;105.830;2022-12-19T23:13:05;192.88;;;93.95;;
44434;SDS011;30138;20.964;105.830;2022-12-19T23:18:12;196.25;;;95.97;;
44434;SDS011;30138;20.964;105.830;2022-12-19T23:23:22;216.52;;;103.43;;
44434;SDS011;30138;20.964;105.830;2022-12-19T23:28:29;218.43;;;100.63;;
44434;SDS011;30138;20.964;105.830;2022-12-19T23:33:36;228.45;;;104.35;;
44434;SDS011;30138;20.964;105.830;2022-12-19T23:38:46;209.40;;;102.85;;
44434;SDS011;30138;20.964;105.830;2022-12-19T23:43:58;206.18;;;98.13;;
44434;SDS011;30138;20.964;105.830;2022-12-19T23:49:05;193.60;;;95.03;;
44434;SDS011;30138;20.964;105.830;2022-12-19T23:54:14;194.77;;;95.28;;
44434;SDS011;30138;20.964;105.830;2022-12-19T23:59:22;184.88;;;92.47;;
